Avon, New York
Current Conditions -  °F | °C
As of 4:54 PM on Tuesday 21 Oct 2014 (Local Time) from KROC Reporting Station
Light Rain Light Rain  
Wind Chill: 52°   Ceiling: 800
Heat Index: 52°   Visibility: 7mi
Dew Point: 50°   Wind: 13mph
Humidity: 93%   Direction: 40°NE
Pressure: 29.91"   Gusts: NA
Location:  42.91°N, 77.75°W
Report Text: KROC 212054Z 04011KT 7SM -RA BKN008 BKN018 OVC035 11/10 A2991 RMK AO2 RAB17 SLP133 P0001 60001 T01110100 53018
Loading
Personal Weather Stations






























Interactive Weather Map
Tropical Storm Tracking
New forecast layout! Learn more

10-Day Weather Forecast

Advertisements
Track Severe Weather on mobile